sensor_id;sensor_type;location;lat;lon;timestamp;pressure;altitude;pressure_sealevel;temperature;humidity
74552;BME280;63025;55.472;38.432;2023-02-28T00:00:43;100776.00;;;-6.25;78.33
74552;BME280;63025;55.472;38.432;2023-02-28T00:03:09;100775.56;;;-6.18;78.05
74552;BME280;63025;55.472;38.432;2023-02-28T00:05:35;100770.00;;;-6.12;77.67
74552;BME280;63025;55.472;38.432;2023-02-28T00:08:00;100757.66;;;-6.10;77.74
74552;BME280;63025;55.472;38.432;2023-02-28T00:10:28;100747.88;;;-6.06;77.38
74552;BME280;63025;55.472;38.432;2023-02-28T00:12:58;100737.34;;;-6.05;77.76
74552;BME280;63025;55.472;38.432;2023-02-28T00:15:25;100745.97;;;-6.03;77.61
74552;BME280;63025;55.472;38.432;2023-02-28T00:17:51;100740.13;;;-6.08;77.69
74552;BME280;63025;55.472;38.432;2023-02-28T00:20:17;100734.72;;;-6.05;77.47
74552;BME280;63025;55.472;38.432;2023-02-28T00:22:45;100727.97;;;-6.09;77.42
74552;BME280;63025;55.472;38.432;2023-02-28T00:25:13;100725.53;;;-6.12;77.59
74552;BME280;63025;55.472;38.432;2023-02-28T00:27:40;100729.34;;;-6.17;77.42
74552;BME280;63025;55.472;38.432;2023-02-28T00:30:08;100721.94;;;-6.25;77.01
74552;BME280;63025;55.472;38.432;2023-02-28T00:32:36;100727.84;;;-6.37;77.35
74552;BME280;63025;55.472;38.432;2023-02-28T00:35:03;100723.38;;;-6.51;77.23
74552;BME280;63025;55.472;38.432;2023-02-28T00:37:30;100727.19;;;-6.56;77.71
74552;BME280;63025;55.472;38.432;2023-02-28T00:39:56;100730.28;;;-6.65;77.83
74552;BME280;63025;55.472;38.432;2023-02-28T00:42:22;100722.13;;;-6.75;78.16
74552;BME280;63025;55.472;38.432;2023-02-28T00:44:48;100724.97;;;-6.80;78.08
74552;BME280;63025;55.472;38.432;2023-02-28T00:47:13;100726.31;;;-6.88;78.15
74552;BME280;63025;55.472;38.432;2023-02-28T00:49:39;100721.91;;;-6.88;78.28
74552;BME280;63025;55.472;38.432;2023-02-28T00:52:05;100726.47;;;-6.91;78.22
74552;BME280;63025;55.472;38.432;2023-02-28T00:54:31;100719.69;;;-6.95;78.29
74552;BME280;63025;55.472;38.432;2023-02-28T00:56:57;100705.22;;;-7.01;78.38
74552;BME280;63025;55.472;38.432;2023-02-28T00:59:24;100712.53;;;-7.08;78.29
74552;BME280;63025;55.472;38.432;2023-02-28T01:01:49;100701.41;;;-7.11;78.73
74552;BME280;63025;55.472;38.432;2023-02-28T01:04:15;100699.13;;;-7.17;78.41
74552;BME280;63025;55.472;38.432;2023-02-28T01:06:41;100698.44;;;-7.21;78.35
74552;BME280;63025;55.472;38.432;2023-02-28T01:09:10;100695.13;;;-7.24;78.85
74552;BME280;63025;55.472;38.432;2023-02-28T01:11:36;100691.75;;;-7.26;78.67
74552;BME280;63025;55.472;38.432;2023-02-28T01:14:02;100686.63;;;-7.28;78.82
74552;BME280;63025;55.472;38.432;2023-02-28T01:16:30;100669.50;;;-7.33;78.74
74552;BME280;63025;55.472;38.432;2023-02-28T01:18:56;100665.41;;;-7.37;78.99
74552;BME280;63025;55.472;38.432;2023-02-28T01:21:22;100663.00;;;-7.42;78.93
74552;BME280;63025;55.472;38.432;2023-02-28T01:23:48;100659.63;;;-7.44;79.01
74552;BME280;63025;55.472;38.432;2023-02-28T01:26:22;100670.06;;;-7.44;79.09
74552;BME280;63025;55.472;38.432;2023-02-28T01:28:49;100663.41;;;-7.50;78.99
74552;BME280;63025;55.472;38.432;2023-02-28T01:31:16;100654.91;;;-7.53;79.20
74552;BME280;63025;55.472;38.432;2023-02-28T01:33:42;100654.66;;;-7.49;79.19
74552;BME280;63025;55.472;38.432;2023-02-28T01:36:13;100656.66;;;-7.54;79.10
74552;BME280;63025;55.472;38.432;2023-02-28T01:38:39;100655.22;;;-7.59;79.20
74552;BME280;63025;55.472;38.432;2023-02-28T01:41:06;100651.94;;;-7.63;79.18
74552;BME280;63025;55.472;38.432;2023-02-28T01:43:56;100661.59;;;-7.65;79.05
74552;BME280;63025;55.472;38.432;2023-02-28T01:46:22;100647.03;;;-7.69;79.23
74552;BME280;63025;55.472;38.432;2023-02-28T01:48:56;100648.94;;;-7.72;79.36
74552;BME280;63025;55.472;38.432;2023-02-28T01:51:35;100638.44;;;-7.71;79.50
74552;BME280;63025;55.472;38.432;2023-02-28T01:54:09;100642.19;;;-7.77;79.31
74552;BME280;63025;55.472;38.432;2023-02-28T01:56:44;100635.47;;;-7.81;79.34
74552;BME280;63025;55.472;38.432;2023-02-28T01:59:14;100632.94;;;-7.82;79.39
74552;BME280;63025;55.472;38.432;2023-02-28T02:01:43;100621.81;;;-7.86;79.60
74552;BME280;63025;55.472;38.432;2023-02-28T02:04:09;100631.56;;;-7.89;79.59
74552;BME280;63025;55.472;38.432;2023-02-28T02:06:40;100631.38;;;-7.86;79.31
74552;BME280;63025;55.472;38.432;2023-02-28T02:09:10;100631.84;;;-7.78;79.62
74552;BME280;63025;55.472;38.432;2023-02-28T02:11:38;100624.63;;;-7.73;79.32
74552;BME280;63025;55.472;38.432;2023-02-28T02:36:21;100577.03;;;-7.94;79.19
74552;BME280;63025;55.472;38.432;2023-02-28T02:43:56;100577.16;;;-7.97;79.36
74552;BME280;63025;55.472;38.432;2023-02-28T02:46:37;100584.31;;;-8.00;79.31
74552;BME280;63025;55.472;38.432;2023-02-28T02:49:09;100581.53;;;-7.97;79.54
74552;BME280;63025;55.472;38.432;2023-02-28T02:51:36;100573.66;;;-7.96;79.28
74552;BME280;63025;55.472;38.432;2023-02-28T02:54:28;100568.28;;;-7.93;79.05
74552;BME280;63025;55.472;38.432;2023-02-28T02:57:05;100566.75;;;-7.97;79.06
74552;BME280;63025;55.472;38.432;2023-02-28T02:59:35;100563.56;;;-7.86;79.20
74552;BME280;63025;55.472;38.432;2023-02-28T03:02:04;100562.56;;;-7.84;79.15
74552;BME280;63025;55.472;38.432;2023-02-28T03:04:36;100554.91;;;-7.87;79.28
74552;BME280;63025;55.472;38.432;2023-02-28T03:07:03;100546.22;;;-7.87;79.07
74552;BME280;63025;55.472;38.432;2023-02-28T03:09:33;100552.16;;;-7.84;78.86
74552;BME280;63025;55.472;38.432;2023-02-28T03:11:59;100546.31;;;-7.89;79.19
74552;BME280;63025;55.472;38.432;2023-02-28T03:14:29;100542.78;;;-7.88;79.10
74552;BME280;63025;55.472;38.432;2023-02-28T03:27:29;100538.06;;;-7.97;78.94
74552;BME280;63025;55.472;38.432;2023-02-28T03:30:06;100535.53;;;-7.98;78.99
74552;BME280;63025;55.472;38.432;2023-02-28T03:32:48;100520.81;;;-7.99;79.24
74552;BME280;63025;55.472;38.432;2023-02-28T03:35:20;100520.97;;;-8.02;79.03
74552;BME280;63025;55.472;38.432;2023-02-28T03:37:51;100514.22;;;-8.06;78.86
74552;BME280;63025;55.472;38.432;2023-02-28T03:40:25;100509.16;;;-8.09;79.22
74552;BME280;63025;55.472;38.432;2023-02-28T03:42:58;100499.00;;;-8.14;79.26
74552;BME280;63025;55.472;38.432;2023-02-28T03:45:28;100499.06;;;-8.16;79.18
74552;BME280;63025;55.472;38.432;2023-02-28T03:50:42;100484.97;;;-8.11;79.25
74552;BME280;63025;55.472;38.432;2023-02-28T03:53:32;100472.06;;;-8.15;79.04
74552;BME280;63025;55.472;38.432;2023-02-28T03:56:21;100461.88;;;-8.19;79.19
74552;BME280;63025;55.472;38.432;2023-02-28T03:58:53;100465.31;;;-8.19;79.42
74552;BME280;63025;55.472;38.432;2023-02-28T04:01:25;100464.41;;;-8.18;79.26
74552;BME280;63025;55.472;38.432;2023-02-28T04:03:53;100453.06;;;-8.17;79.13
74552;BME280;63025;55.472;38.432;2023-02-28T04:06:21;100459.28;;;-8.19;79.39
74552;BME280;63025;55.472;38.432;2023-02-28T04:08:48;100459.19;;;-8.18;79.21
74552;BME280;63025;55.472;38.432;2023-02-28T04:11:21;100448.63;;;-8.15;79.19
74552;BME280;63025;55.472;38.432;2023-02-28T04:13:47;100449.69;;;-8.19;79.29
74552;BME280;63025;55.472;38.432;2023-02-28T04:16:14;100440.03;;;-8.17;79.00
74552;BME280;63025;55.472;38.432;2023-02-28T04:18:41;100442.56;;;-8.15;78.92
74552;BME280;63025;55.472;38.432;2023-02-28T04:21:08;100428.59;;;-8.14;78.82
74552;BME280;63025;55.472;38.432;2023-02-28T04:23:34;100427.75;;;-8.15;78.80
74552;BME280;63025;55.472;38.432;2023-02-28T04:26:00;100430.38;;;-8.15;78.90
74552;BME280;63025;55.472;38.432;2023-02-28T04:28:26;100425.16;;;-8.15;79.01
74552;BME280;63025;55.472;38.432;2023-02-28T04:31:03;100415.31;;;-8.09;78.80
74552;BME280;63025;55.472;38.432;2023-02-28T04:33:44;100406.75;;;-8.11;78.62
74552;BME280;63025;55.472;38.432;2023-02-28T04:36:10;100409.94;;;-8.06;78.65
74552;BME280;63025;55.472;38.432;2023-02-28T04:38:37;100409.63;;;-8.00;78.64
74552;BME280;63025;55.472;38.432;2023-02-28T04:41:03;100412.97;;;-7.98;78.34
74552;BME280;63025;55.472;38.432;2023-02-28T04:43:30;100401.38;;;-7.93;78.56
74552;BME280;63025;55.472;38.432;2023-02-28T04:45:57;100397.00;;;-7.92;78.21
74552;BME280;63025;55.472;38.432;2023-02-28T04:48:24;100396.66;;;-7.86;78.05
74552;BME280;63025;55.472;38.432;2023-02-28T04:50:51;100396.66;;;-7.86;77.79
74552;BME280;63025;55.472;38.432;2023-02-28T04:53:17;100391.13;;;-7.80;77.59
74552;BME280;63025;55.472;38.432;2023-02-28T04:55:44;100380.31;;;-7.74;77.84
74552;BME280;63025;55.472;38.432;2023-02-28T04:58:10;100380.25;;;-7.72;77.50
74552;BME280;63025;55.472;38.432;2023-02-28T05:00:35;100373.66;;;-7.64;77.38
74552;BME280;63025;55.472;38.432;2023-02-28T05:03:01;100376.09;;;-7.61;77.33
74552;BME280;63025;55.472;38.432;2023-02-28T05:05:27;100376.66;;;-7.56;77.24
74552;BME280;63025;55.472;38.432;2023-02-28T05:07:53;100361.63;;;-7.51;77.00
74552;BME280;63025;55.472;38.432;2023-02-28T05:10:22;100363.09;;;-7.47;77.15
74552;BME280;63025;55.472;38.432;2023-02-28T05:12:47;100345.25;;;-7.38;76.57
74552;BME280;63025;55.472;38.432;2023-02-28T05:15:14;100347.50;;;-7.32;76.52
74552;BME280;63025;55.472;38.432;2023-02-28T05:17:41;100345.34;;;-7.26;76.23
74552;BME280;63025;55.472;38.432;2023-02-28T05:20:08;100341.41;;;-7.17;75.96
74552;BME280;63025;55.472;38.432;2023-02-28T05:22:36;100342.97;;;-7.15;75.82
74552;BME280;63025;55.472;38.432;2023-02-28T05:25:03;100331.97;;;-7.06;75.60
74552;BME280;63025;55.472;38.432;2023-02-28T05:27:30;100325.72;;;-7.03;75.34
74552;BME280;63025;55.472;38.432;2023-02-28T05:29:56;100313.06;;;-6.95;74.87
74552;BME280;63025;55.472;38.432;2023-02-28T05:32:22;100305.69;;;-6.88;74.77
74552;BME280;63025;55.472;38.432;2023-02-28T05:34:47;100306.06;;;-6.80;74.31
74552;BME280;63025;55.472;38.432;2023-02-28T05:37:14;100301.31;;;-6.74;73.83
74552;BME280;63025;55.472;38.432;2023-02-28T05:39:41;100282.47;;;-6.64;73.26
74552;BME280;63025;55.472;38.432;2023-02-28T05:42:08;100293.06;;;-6.53;73.35
74552;BME280;63025;55.472;38.432;2023-02-28T05:44:35;100289.16;;;-6.46;73.11
74552;BME280;63025;55.472;38.432;2023-02-28T05:47:01;100288.59;;;-6.37;72.21
74552;BME280;63025;55.472;38.432;2023-02-28T05:49:27;100275.03;;;-6.30;71.96
74552;BME280;63025;55.472;38.432;2023-02-28T05:51:53;100268.09;;;-6.16;71.61
74552;BME280;63025;55.472;38.432;2023-02-28T05:54:18;100263.50;;;-6.13;71.39
74552;BME280;63025;55.472;38.432;2023-02-28T05:56:44;100257.47;;;-6.01;70.80
74552;BME280;63025;55.472;38.432;2023-02-28T05:59:14;100239.78;;;-5.97;70.37
74552;BME280;63025;55.472;38.432;2023-02-28T06:01:44;100240.56;;;-5.82;69.75
74552;BME280;63025;55.472;38.432;2023-02-28T06:04:15;100237.31;;;-5.73;69.41
74552;BME280;63025;55.472;38.432;2023-02-28T06:06:45;100243.72;;;-5.65;69.10
74552;BME280;63025;55.472;38.432;2023-02-28T06:09:11;100233.78;;;-5.60;68.97
74552;BME280;63025;55.472;38.432;2023-02-28T06:11:37;100213.19;;;-5.51;68.86
74552;BME280;63025;55.472;38.432;2023-02-28T06:14:03;100216.84;;;-5.41;67.81
74552;BME280;63025;55.472;38.432;2023-02-28T06:16:31;100198.38;;;-5.27;67.87
74552;BME280;63025;55.472;38.432;2023-02-28T06:18:58;100200.28;;;-5.17;67.18
74552;BME280;63025;55.472;38.432;2023-02-28T06:21:24;100195.97;;;-5.18;66.86
74552;BME280;63025;55.472;38.432;2023-02-28T06:23:50;100190.72;;;-5.05;65.93
74552;BME280;63025;55.472;38.432;2023-02-28T06:26:16;100179.28;;;-4.91;66.22
74552;BME280;63025;55.472;38.432;2023-02-28T06:28:41;100177.28;;;-4.88;65.84
74552;BME280;63025;55.472;38.432;2023-02-28T06:31:09;100175.06;;;-4.81;65.18
74552;BME280;63025;55.472;38.432;2023-02-28T06:33:36;100170.75;;;-4.69;64.76
74552;BME280;63025;55.472;38.432;2023-02-28T06:36:02;100153.94;;;-4.67;64.21
74552;BME280;63025;55.472;38.432;2023-02-28T06:38:28;100142.19;;;-4.61;64.28
74552;BME280;63025;55.472;38.432;2023-02-28T06:40:55;100141.97;;;-4.34;63.22
74552;BME280;63025;55.472;38.432;2023-02-28T06:43:22;100123.56;;;-4.11;62.91
74552;BME280;63025;55.472;38.432;2023-02-28T06:45:48;100127.75;;;-4.08;62.68
74552;BME280;63025;55.472;38.432;2023-02-28T06:48:13;100118.03;;;-3.84;62.30
74552;BME280;63025;55.472;38.432;2023-02-28T06:50:39;100111.13;;;-3.74;61.80
74552;BME280;63025;55.472;38.432;2023-02-28T06:53:05;100097.03;;;-3.73;61.53
74552;BME280;63025;55.472;38.432;2023-02-28T06:55:30;100095.88;;;-3.68;60.91
74552;BME280;63025;55.472;38.432;2023-02-28T06:57:57;100098.28;;;-3.54;60.47
74552;BME280;63025;55.472;38.432;2023-02-28T07:00:24;100091.47;;;-3.35;59.49
74552;BME280;63025;55.472;38.432;2023-02-28T07:02:50;100103.66;;;-3.22;58.48
74552;BME280;63025;55.472;38.432;2023-02-28T07:05:16;100102.31;;;-3.06;57.86
74552;BME280;63025;55.472;38.432;2023-02-28T07:07:42;100090.56;;;-2.90;57.47
74552;BME280;63025;55.472;38.432;2023-02-28T07:10:11;100103.00;;;-2.81;56.90
74552;BME280;63025;55.472;38.432;2023-02-28T07:12:39;100102.72;;;-2.67;56.98
74552;BME280;63025;55.472;38.432;2023-02-28T07:15:05;100092.63;;;-2.51;56.70
74552;BME280;63025;55.472;38.432;2023-02-28T07:17:31;100085.69;;;-1.99;55.47
74552;BME280;63025;55.472;38.432;2023-02-28T07:19:57;100080.97;;;-1.75;55.18
74552;BME280;63025;55.472;38.432;2023-02-28T07:22:22;100070.63;;;-1.46;54.82
74552;BME280;63025;55.472;38.432;2023-02-28T07:24:48;100060.69;;;-1.23;53.79
74552;BME280;63025;55.472;38.432;2023-02-28T07:27:14;100052.94;;;-1.25;53.50
74552;BME280;63025;55.472;38.432;2023-02-28T07:29:52;100036.22;;;-1.35;52.97
74552;BME280;63025;55.472;38.432;2023-02-28T07:32:19;100033.66;;;-1.25;52.83
74552;BME280;63025;55.472;38.432;2023-02-28T07:34:45;100029.22;;;-1.25;52.87
74552;BME280;63025;55.472;38.432;2023-02-28T07:37:11;100020.78;;;-0.99;52.77
74552;BME280;63025;55.472;38.432;2023-02-28T07:39:36;100012.31;;;-1.03;52.35
74552;BME280;63025;55.472;38.432;2023-02-28T07:42:06;100008.56;;;-1.00;52.28
74552;BME280;63025;55.472;38.432;2023-02-28T07:44:34;100008.03;;;-1.04;52.15
74552;BME280;63025;55.472;38.432;2023-02-28T07:47:00;99996.78;;;-0.96;52.22
74552;BME280;63025;55.472;38.432;2023-02-28T07:49:26;99993.84;;;-0.93;52.38
74552;BME280;63025;55.472;38.432;2023-02-28T07:51:52;99980.66;;;-0.93;52.11
74552;BME280;63025;55.472;38.432;2023-02-28T07:54:18;99979.97;;;-1.05;52.02
74552;BME280;63025;55.472;38.432;2023-02-28T07:56:43;99978.81;;;-1.22;52.47
74552;BME280;63025;55.472;38.432;2023-02-28T07:59:09;99963.97;;;-1.13;52.85
74552;BME280;63025;55.472;38.432;2023-02-28T08:01:35;99961.91;;;-1.19;53.03
74552;BME280;63025;55.472;38.432;2023-02-28T08:04:00;99954.13;;;-1.11;52.89
74552;BME280;63025;55.472;38.432;2023-02-28T08:06:26;99961.66;;;-1.16;53.24
74552;BME280;63025;55.472;38.432;2023-02-28T08:08:52;99957.19;;;-1.25;53.74
74552;BME280;63025;55.472;38.432;2023-02-28T08:11:18;99963.25;;;-1.34;53.88
74552;BME280;63025;55.472;38.432;2023-02-28T08:13:45;99963.84;;;-1.21;54.02
74552;BME280;63025;55.472;38.432;2023-02-28T08:16:12;99948.34;;;-1.05;53.79
74552;BME280;63025;55.472;38.432;2023-02-28T08:18:43;99951.81;;;-1.04;53.66
74552;BME280;63025;55.472;38.432;2023-02-28T08:21:09;99952.06;;;-1.07;53.82
74552;BME280;63025;55.472;38.432;2023-02-28T08:23:36;99941.78;;;-1.11;53.57
74552;BME280;63025;55.472;38.432;2023-02-28T08:26:02;99946.09;;;-0.90;53.92
74552;BME280;63025;55.472;38.432;2023-02-28T08:28:28;99940.00;;;-1.10;53.96
74552;BME280;63025;55.472;38.432;2023-02-28T08:30:54;99936.66;;;-0.93;53.67
74552;BME280;63025;55.472;38.432;2023-02-28T08:33:20;99941.41;;;-0.87;54.09
74552;BME280;63025;55.472;38.432;2023-02-28T08:35:46;99941.25;;;-0.76;53.88
74552;BME280;63025;55.472;38.432;2023-02-28T08:38:12;99936.66;;;-0.54;53.81
74552;BME280;63025;55.472;38.432;2023-02-28T08:40:38;99928.25;;;-0.30;53.23
74552;BME280;63025;55.472;38.432;2023-02-28T08:43:03;99916.50;;;-0.55;53.56
74552;BME280;63025;55.472;38.432;2023-02-28T08:45:29;99911.59;;;-0.41;53.68
74552;BME280;63025;55.472;38.432;2023-02-28T08:47:55;99910.38;;;-0.46;53.45
74552;BME280;63025;55.472;38.432;2023-02-28T08:50:21;99893.69;;;-0.47;54.14
74552;BME280;63025;55.472;38.432;2023-02-28T08:52:47;99891.44;;;-0.32;54.01
74552;BME280;63025;55.472;38.432;2023-02-28T08:55:13;99872.13;;;-0.32;54.09
74552;BME280;63025;55.472;38.432;2023-02-28T08:57:38;99872.28;;;-0.34;53.83
74552;BME280;63025;55.472;38.432;2023-02-28T09:00:04;99876.41;;;-0.22;54.59
74552;BME280;63025;55.472;38.432;2023-02-28T09:02:31;99871.31;;;-0.33;54.25
74552;BME280;63025;55.472;38.432;2023-02-28T09:04:57;99862.09;;;-0.29;54.53
74552;BME280;63025;55.472;38.432;2023-02-28T09:07:24;99857.50;;;-0.27;54.47
74552;BME280;63025;55.472;38.432;2023-02-28T09:09:50;99868.97;;;-0.09;54.20
74552;BME280;63025;55.472;38.432;2023-02-28T09:12:24;99876.25;;;0.34;54.39
74552;BME280;63025;55.472;38.432;2023-02-28T09:14:50;99884.03;;;0.36;53.79
74552;BME280;63025;55.472;38.432;2023-02-28T09:17:17;99885.78;;;0.27;54.30
74552;BME280;63025;55.472;38.432;2023-02-28T09:19:42;99885.03;;;0.08;54.58
74552;BME280;63025;55.472;38.432;2023-02-28T09:22:10;99889.63;;;-0.22;55.80
74552;BME280;63025;55.472;38.432;2023-02-28T09:24:37;99876.25;;;-0.20;55.67
74552;BME280;63025;55.472;38.432;2023-02-28T09:27:03;99873.69;;;-0.03;56.13
74552;BME280;63025;55.472;38.432;2023-02-28T09:29:30;99863.06;;;0.07;55.83
74552;BME280;63025;55.472;38.432;2023-02-28T09:31:56;99855.78;;;0.19;55.79
74552;BME280;63025;55.472;38.432;2023-02-28T09:34:25;99851.47;;;0.18;55.94
74552;BME280;63025;55.472;38.432;2023-02-28T09:36:50;99841.88;;;0.17;56.00
74552;BME280;63025;55.472;38.432;2023-02-28T09:39:21;99834.00;;;0.07;56.44
74552;BME280;63025;55.472;38.432;2023-02-28T09:41:51;99828.09;;;-0.05;57.15
74552;BME280;63025;55.472;38.432;2023-02-28T09:44:26;99808.72;;;0.05;57.35
74552;BME280;63025;55.472;38.432;2023-02-28T09:47:00;99799.81;;;0.06;57.39
74552;BME280;63025;55.472;38.432;2023-02-28T09:49:41;99791.78;;;-0.03;57.54
74552;BME280;63025;55.472;38.432;2023-02-28T09:52:15;99786.50;;;-0.03;57.78
74552;BME280;63025;55.472;38.432;2023-02-28T09:54:42;99790.88;;;-0.11;57.92
74552;BME280;63025;55.472;38.432;2023-02-28T09:57:40;99793.66;;;-0.13;58.55
74552;BME280;63025;55.472;38.432;2023-02-28T10:03:09;99783.69;;;-0.46;59.89
74552;BME280;63025;55.472;38.432;2023-02-28T10:05:38;99790.91;;;-0.48;60.71
74552;BME280;63025;55.472;38.432;2023-02-28T10:08:29;99793.81;;;-0.51;60.87
74552;BME280;63025;55.472;38.432;2023-02-28T10:11:01;99782.28;;;-0.50;60.78
74552;BME280;63025;55.472;38.432;2023-02-28T10:13:52;99788.66;;;-0.43;60.81
74552;BME280;63025;55.472;38.432;2023-02-28T10:16:37;99779.59;;;-0.41;60.89
74552;BME280;63025;55.472;38.432;2023-02-28T10:19:11;99766.81;;;-0.35;61.20
74552;BME280;63025;55.472;38.432;2023-02-28T10:21:42;99772.09;;;-0.35;61.14
74552;BME280;63025;55.472;38.432;2023-02-28T10:24:33;99768.06;;;-0.40;61.42
74552;BME280;63025;55.472;38.432;2023-02-28T10:27:24;99769.88;;;-0.40;61.67
74552;BME280;63025;55.472;38.432;2023-02-28T10:29:56;99749.06;;;-0.43;61.99
74552;BME280;63025;55.472;38.432;2023-02-28T10:32:27;99750.69;;;-0.32;62.44
74552;BME280;63025;55.472;38.432;2023-02-28T10:37:41;99734.66;;;-0.21;62.27
74552;BME280;63025;55.472;38.432;2023-02-28T10:45:34;99727.19;;;-0.53;63.43
74552;BME280;63025;55.472;38.432;2023-02-28T10:50:50;99718.66;;;-0.47;63.16
74552;BME280;63025;55.472;38.432;2023-02-28T10:56:04;99711.28;;;-0.44;63.13
74552;BME280;63025;55.472;38.432;2023-02-28T11:01:13;99701.44;;;-0.51;63.84
74552;BME280;63025;55.472;38.432;2023-02-28T11:03:40;99699.34;;;-0.48;64.39
74552;BME280;63025;55.472;38.432;2023-02-28T11:06:08;99697.41;;;-0.46;64.08
74552;BME280;63025;55.472;38.432;2023-02-28T11:08:48;99687.97;;;-0.48;64.57
74552;BME280;63025;55.472;38.432;2023-02-28T11:11:15;99685.53;;;-0.59;65.00
74552;BME280;63025;55.472;38.432;2023-02-28T11:13:44;99682.97;;;-0.51;64.28
74552;BME280;63025;55.472;38.432;2023-02-28T11:16:12;99687.28;;;-0.50;64.68
74552;BME280;63025;55.472;38.432;2023-02-28T11:21:34;99703.91;;;-0.67;65.29
74552;BME280;63025;55.472;38.432;2023-02-28T11:24:05;99683.06;;;-0.70;65.62
74552;BME280;63025;55.472;38.432;2023-02-28T11:26:42;99695.06;;;-0.76;65.68
74552;BME280;63025;55.472;38.432;2023-02-28T11:29:30;99695.34;;;-0.79;65.99
74552;BME280;63025;55.472;38.432;2023-02-28T11:34:27;99679.66;;;-0.81;65.79
74552;BME280;63025;55.472;38.432;2023-02-28T11:36:55;99684.56;;;-0.86;66.13
74552;BME280;63025;55.472;38.432;2023-02-28T11:39:23;99678.69;;;-0.80;66.39
74552;BME280;63025;55.472;38.432;2023-02-28T11:50:46;99686.50;;;-0.88;65.99
74552;BME280;63025;55.472;38.432;2023-02-28T11:56:23;99662.56;;;-1.04;67.05
74552;BME280;63025;55.472;38.432;2023-02-28T11:59:16;99671.97;;;-1.01;67.55
74552;BME280;63025;55.472;38.432;2023-02-28T12:02:24;99651.19;;;-1.04;67.39
74552;BME280;63025;55.472;38.432;2023-02-28T12:13:38;99647.94;;;-0.98;67.61
74552;BME280;63025;55.472;38.432;2023-02-28T12:26:44;99642.44;;;-1.05;70.25
74552;BME280;63025;55.472;38.432;2023-02-28T12:31:38;99629.13;;;-1.13;71.03
74552;BME280;63025;55.472;38.432;2023-02-28T12:34:10;99619.97;;;-1.09;70.55
74552;BME280;63025;55.472;38.432;2023-02-28T12:36:39;99608.81;;;-1.03;70.52
74552;BME280;63025;55.472;38.432;2023-02-28T12:39:15;99611.72;;;-0.96;69.74
74552;BME280;63025;55.472;38.432;2023-02-28T12:41:47;99608.94;;;-0.95;69.76
74552;BME280;63025;55.472;38.432;2023-02-28T12:46:51;99603.66;;;-0.95;70.15
74552;BME280;63025;55.472;38.432;2023-02-28T12:49:48;99601.59;;;-1.01;70.54
74552;BME280;63025;55.472;38.432;2023-02-28T12:52:18;99603.03;;;-1.06;69.80
74552;BME280;63025;55.472;38.432;2023-02-28T12:54:53;99597.63;;;-1.05;70.16
74552;BME280;63025;55.472;38.432;2023-02-28T13:00:00;99590.69;;;-1.06;70.33
74552;BME280;63025;55.472;38.432;2023-02-28T13:09:15;99576.16;;;-1.20;71.18
74552;BME280;63025;55.472;38.432;2023-02-28T13:11:29;99579.72;;;-1.11;71.25
74552;BME280;63025;55.472;38.432;2023-02-28T13:13:59;99572.28;;;-1.16;71.00
74552;BME280;63025;55.472;38.432;2023-02-28T13:16:25;99572.56;;;-1.19;70.90
74552;BME280;63025;55.472;38.432;2023-02-28T13:18:51;99563.81;;;-1.19;71.03
74552;BME280;63025;55.472;38.432;2023-02-28T13:26:22;99540.78;;;-1.17;71.42
74552;BME280;63025;55.472;38.432;2023-02-28T13:31:15;99514.69;;;-1.20;71.31
74552;BME280;63025;55.472;38.432;2023-02-28T13:38:57;99537.22;;;-1.26;72.33
74552;BME280;63025;55.472;38.432;2023-02-28T13:44:15;99520.09;;;-1.22;72.59
74552;BME280;63025;55.472;38.432;2023-02-28T13:49:32;99545.97;;;-1.25;72.90
74552;BME280;63025;55.472;38.432;2023-02-28T13:52:07;99536.53;;;-1.28;72.92
74552;BME280;63025;55.472;38.432;2023-02-28T13:55:02;99528.75;;;-1.29;72.70
74552;BME280;63025;55.472;38.432;2023-02-28T14:06:15;99496.72;;;-1.34;72.97
74552;BME280;63025;55.472;38.432;2023-02-28T14:09:16;99499.69;;;-1.37;74.01
74552;BME280;63025;55.472;38.432;2023-02-28T14:11:43;99504.94;;;-1.37;73.84
74552;BME280;63025;55.472;38.432;2023-02-28T14:17:03;99490.63;;;-1.35;74.01
74552;BME280;63025;55.472;38.432;2023-02-28T14:19:31;99489.00;;;-1.36;74.10
74552;BME280;63025;55.472;38.432;2023-02-28T14:35:27;99491.47;;;-1.34;74.92
74552;BME280;63025;55.472;38.432;2023-02-28T14:38:04;99488.16;;;-1.36;74.82
74552;BME280;63025;55.472;38.432;2023-02-28T14:40:34;99487.19;;;-1.35;74.73
74552;BME280;63025;55.472;38.432;2023-02-28T14:43:03;99465.56;;;-1.39;75.03
74552;BME280;63025;55.472;38.432;2023-02-28T14:45:31;99468.88;;;-1.37;75.53
74552;BME280;63025;55.472;38.432;2023-02-28T14:47:58;99467.91;;;-1.36;75.05
74552;BME280;63025;55.472;38.432;2023-02-28T14:50:30;99471.38;;;-1.35;75.22
74552;BME280;63025;55.472;38.432;2023-02-28T14:52:57;99456.53;;;-1.36;75.55
74552;BME280;63025;55.472;38.432;2023-02-28T14:55:30;99449.16;;;-1.33;75.96
74552;BME280;63025;55.472;38.432;2023-02-28T14:57:59;99456.06;;;-1.32;75.95
74552;BME280;63025;55.472;38.432;2023-02-28T15:00:26;99450.66;;;-1.30;75.78
74552;BME280;63025;55.472;38.432;2023-02-28T15:02:53;99446.38;;;-1.31;75.98
74552;BME280;63025;55.472;38.432;2023-02-28T15:05:30;99437.34;;;-1.29;75.80
74552;BME280;63025;55.472;38.432;2023-02-28T15:08:14;99437.47;;;-1.30;76.04
74552;BME280;63025;55.472;38.432;2023-02-28T15:10:44;99441.09;;;-1.31;76.02
74552;BME280;63025;55.472;38.432;2023-02-28T15:13:13;99427.91;;;-1.31;76.64
74552;BME280;63025;55.472;38.432;2023-02-28T15:15:41;99432.22;;;-1.30;76.61
74552;BME280;63025;55.472;38.432;2023-02-28T15:18:15;99432.22;;;-1.30;76.66
74552;BME280;63025;55.472;38.432;2023-02-28T15:20:44;99433.03;;;-1.30;76.89
74552;BME280;63025;55.472;38.432;2023-02-28T15:23:10;99415.28;;;-1.28;76.81
74552;BME280;63025;55.472;38.432;2023-02-28T15:25:36;99425.81;;;-1.28;77.38
74552;BME280;63025;55.472;38.432;2023-02-28T15:28:02;99427.47;;;-1.27;77.71
74552;BME280;63025;55.472;38.432;2023-02-28T15:30:30;99428.31;;;-1.26;77.82